createdAt,value
2019-03-15T00:00:48.967Z,4.30
2019-03-15T00:01:58.046Z,4.30
2019-03-15T00:03:03.027Z,4.30
2019-03-15T00:04:07.914Z,4.30
2019-03-15T00:05:12.767Z,4.30
2019-03-15T00:06:17.776Z,4.30
2019-03-15T00:07:22.696Z,4.40
2019-03-15T00:08:27.611Z,4.40
2019-03-15T00:09:32.592Z,4.40
2019-03-15T00:10:37.410Z,4.40
2019-03-15T00:11:42.195Z,4.40
2019-03-15T00:12:47.363Z,4.40
2019-03-15T00:13:52.313Z,4.40
2019-03-15T00:14:57.113Z,4.50
2019-03-15T00:16:01.858Z,4.50
2019-03-15T00:17:06.881Z,4.50
2019-03-15T00:18:11.739Z,4.50
2019-03-15T00:19:16.629Z,4.50
2019-03-15T00:20:21.575Z,4.50
2019-03-15T00:21:26.568Z,4.50
2019-03-15T00:22:31.610Z,4.50
2019-03-15T00:23:36.417Z,4.50
2019-03-15T00:24:42.575Z,4.50
2019-03-15T00:25:47.692Z,4.50
2019-03-15T00:26:52.751Z,4.40
2019-03-15T00:27:57.655Z,4.40
2019-03-15T00:29:02.625Z,4.40
2019-03-15T00:30:08.464Z,4.40
2019-03-15T00:31:13.425Z,4.40
2019-03-15T00:32:18.236Z,4.40
2019-03-15T00:33:24.468Z,4.40
2019-03-15T00:34:29.580Z,4.40
2019-03-15T00:35:34.522Z,4.40
2019-03-15T00:36:39.396Z,4.40
2019-03-15T00:37:44.297Z,4.40
2019-03-15T00:38:49.420Z,4.40
2019-03-15T00:39:54.407Z,4.40
2019-03-15T00:40:59.342Z,4.40
2019-03-15T00:42:04.523Z,4.40
2019-03-15T00:43:09.365Z,4.40
2019-03-15T00:44:14.474Z,4.40
2019-03-15T00:45:19.572Z,4.40
2019-03-15T00:46:24.481Z,4.40
2019-03-15T00:47:29.326Z,4.40
2019-03-15T00:48:34.332Z,4.40
2019-03-15T00:49:39.258Z,4.30
2019-03-15T00:50:44.136Z,4.30
2019-03-15T00:51:48.937Z,4.40
2019-03-15T00:52:53.856Z,4.40
2019-03-15T00:53:58.837Z,4.40
2019-03-15T00:55:03.724Z,4.50
2019-03-15T00:56:08.624Z,4.40
2019-03-15T00:57:13.541Z,4.40
2019-03-15T00:58:18.547Z,4.40
2019-03-15T00:59:23.459Z,4.50
2019-03-15T01:00:28.394Z,4.40
2019-03-15T01:01:33.260Z,4.40
2019-03-15T01:02:38.248Z,4.40
2019-03-15T01:03:43.529Z,4.40
2019-03-15T01:04:48.326Z,4.40
2019-03-15T01:05:53.092Z,4.50
2019-03-15T01:06:58.213Z,4.50
2019-03-15T01:08:03.211Z,4.50
2019-03-15T01:09:08.401Z,4.50
2019-03-15T01:10:13.804Z,4.50
2019-03-15T01:11:18.816Z,4.50
2019-03-15T01:12:24.167Z,4.50
2019-03-15T01:13:29.296Z,4.50
2019-03-15T01:14:34.315Z,4.50
2019-03-15T01:15:39.361Z,4.50
2019-03-15T01:16:44.376Z,4.50
2019-03-15T01:17:49.268Z,4.50
2019-03-15T01:18:54.083Z,4.50
2019-03-15T01:19:59.037Z,4.50
2019-03-15T01:21:03.828Z,4.50
2019-03-15T01:22:08.930Z,4.50
2019-03-15T01:23:14.103Z,4.50
2019-03-15T01:24:18.857Z,4.50
2019-03-15T01:25:23.832Z,4.40
2019-03-15T01:26:28.610Z,4.50
2019-03-15T01:27:33.533Z,4.50
2019-03-15T01:28:38.403Z,4.50
2019-03-15T01:29:43.457Z,4.50
2019-03-15T01:30:48.398Z,4.50
2019-03-15T01:31:53.264Z,4.50
2019-03-15T01:32:58.245Z,4.50
2019-03-15T01:34:02.972Z,4.60
2019-03-15T01:35:08.046Z,4.50
2019-03-15T01:36:13.074Z,4.50
2019-03-15T01:37:18.028Z,4.50
2019-03-15T01:38:22.932Z,4.50
2019-03-15T01:39:27.800Z,4.50
2019-03-15T01:40:32.684Z,4.50
2019-03-15T01:41:37.678Z,4.60
2019-03-15T01:42:42.593Z,4.50
2019-03-15T01:43:47.377Z,4.60
2019-03-15T01:44:53.269Z,4.60
2019-03-15T01:45:58.456Z,4.60
2019-03-15T01:47:03.385Z,4.60
2019-03-15T01:48:08.185Z,4.60
2019-03-15T01:49:13.124Z,4.50
2019-03-15T01:50:18.169Z,4.50
2019-03-15T01:51:22.956Z,4.50
2019-03-15T01:52:27.856Z,4.60
2019-03-15T01:53:32.733Z,4.50
2019-03-15T01:54:37.727Z,4.50
2019-03-15T01:55:43.016Z,4.50
2019-03-15T01:56:47.914Z,4.50
2019-03-15T01:57:52.752Z,4.50
2019-03-15T01:58:57.652Z,4.50
2019-03-15T02:00:02.632Z,4.50
2019-03-15T02:01:07.555Z,4.50
2019-03-15T02:02:12.336Z,4.50
2019-03-15T02:03:17.302Z,4.50
2019-03-15T02:04:22.228Z,4.50
2019-03-15T02:05:27.116Z,4.60
2019-03-15T02:06:31.920Z,4.60
2019-03-15T02:07:36.833Z,4.60
2019-03-15T02:08:41.689Z,4.50
2019-03-15T02:09:46.677Z,4.60
2019-03-15T02:10:51.478Z,4.60
2019-03-15T02:11:56.328Z,4.60
2019-03-15T02:13:01.254Z,4.50
2019-03-15T02:14:06.198Z,4.50
2019-03-15T02:15:11.356Z,4.60
2019-03-15T02:16:16.190Z,4.60
2019-03-15T02:17:21.065Z,4.60
2019-03-15T02:18:25.945Z,4.60
2019-03-15T02:19:30.776Z,4.60
2019-03-15T02:20:35.564Z,4.50
2019-03-15T02:21:40.456Z,4.50
2019-03-15T02:22:45.300Z,4.50
2019-03-15T02:23:50.337Z,4.60
2019-03-15T02:24:55.324Z,4.50
2019-03-15T02:26:00.204Z,4.50
2019-03-15T02:27:05.252Z,4.50
2019-03-15T02:28:09.987Z,4.50
2019-03-15T02:29:14.919Z,4.50
2019-03-15T02:30:19.999Z,4.50
2019-03-15T02:31:24.766Z,4.50
2019-03-15T02:32:29.502Z,4.50
2019-03-15T02:33:34.508Z,4.50
2019-03-15T02:34:39.489Z,4.60
2019-03-15T02:35:44.476Z,4.60
2019-03-15T02:36:49.246Z,4.60
2019-03-15T02:37:54.151Z,4.60
2019-03-15T02:38:59.005Z,4.60
2019-03-15T02:40:03.829Z,4.60
2019-03-15T02:41:08.593Z,4.50
2019-03-15T02:42:13.506Z,4.60
2019-03-15T02:43:19.121Z,4.60
2019-03-15T02:44:23.989Z,4.60
2019-03-15T02:45:33.028Z,4.60
2019-03-15T02:46:38.036Z,4.60
2019-03-15T02:47:42.830Z,4.60
2019-03-15T02:48:47.588Z,4.60
2019-03-15T02:49:52.547Z,4.60
2019-03-15T02:50:57.300Z,4.60
2019-03-15T02:52:02.063Z,4.60
2019-03-15T02:53:06.928Z,4.60
2019-03-15T02:54:11.912Z,4.70
2019-03-15T02:55:16.875Z,4.60
2019-03-15T02:56:21.818Z,4.70
2019-03-15T02:57:26.665Z,4.60
2019-03-15T02:58:31.577Z,4.60
2019-03-15T02:59:36.329Z,4.60
2019-03-15T03:00:41.331Z,4.60
2019-03-15T03:01:46.219Z,4.60
2019-03-15T03:02:51.089Z,4.60
2019-03-15T03:03:55.864Z,4.60
2019-03-15T03:05:00.735Z,4.60
2019-03-15T03:06:05.808Z,4.70
2019-03-15T03:07:10.716Z,4.60
2019-03-15T03:08:15.473Z,4.60
2019-03-15T03:09:20.537Z,4.60
2019-03-15T03:10:25.541Z,4.60
2019-03-15T03:11:30.444Z,4.60
2019-03-15T03:12:35.218Z,4.70
2019-03-15T03:13:40.167Z,4.70
2019-03-15T03:14:45.095Z,4.70
2019-03-15T03:15:50.005Z,4.60
2019-03-15T03:16:54.781Z,4.60
2019-03-15T03:17:59.641Z,4.70
2019-03-15T03:19:04.669Z,4.70
2019-03-15T03:20:09.961Z,4.70
2019-03-15T03:21:15.319Z,4.70
2019-03-15T03:22:20.411Z,4.70
2019-03-15T03:23:25.277Z,4.70
2019-03-15T03:24:30.028Z,4.70
2019-03-15T03:25:34.805Z,4.70
2019-03-15T03:26:40.290Z,4.70
2019-03-15T03:27:45.216Z,4.70
2019-03-15T03:28:49.964Z,4.70
2019-03-15T03:29:54.874Z,4.70
2019-03-15T03:30:59.889Z,4.70
2019-03-15T03:32:04.861Z,4.60
2019-03-15T03:33:12.397Z,4.70
2019-03-15T03:34:16.349Z,4.70
2019-03-15T03:35:21.135Z,4.70
2019-03-15T03:36:25.893Z,4.60
2019-03-15T03:37:30.840Z,4.70
2019-03-15T03:38:35.687Z,4.70
2019-03-15T03:39:40.426Z,4.70
2019-03-15T03:40:45.235Z,4.70
2019-03-15T03:41:50.109Z,4.60
2019-03-15T03:42:55.124Z,4.60
2019-03-15T03:43:59.921Z,4.60
2019-03-15T03:45:06.334Z,4.60
2019-03-15T03:46:11.280Z,4.60
2019-03-15T03:47:16.312Z,4.60
2019-03-15T03:48:21.228Z,4.60
2019-03-15T03:49:26.954Z,4.60
2019-03-15T03:50:32.368Z,4.60
2019-03-15T03:51:37.185Z,4.60
2019-03-15T03:52:42.173Z,4.60
2019-03-15T03:53:47.114Z,4.60
2019-03-15T03:54:51.980Z,4.60
2019-03-15T03:55:56.743Z,4.60
2019-03-15T03:57:02.086Z,4.60
2019-03-15T03:58:07.008Z,4.60
2019-03-15T03:59:12.020Z,4.60
2019-03-15T04:00:17.392Z,4.60
2019-03-15T04:01:22.515Z,4.60
2019-03-15T04:02:27.344Z,4.60
2019-03-15T04:03:32.217Z,4.60
2019-03-15T04:04:37.092Z,4.60
2019-03-15T04:05:42.352Z,4.60
2019-03-15T04:06:47.198Z,4.60
2019-03-15T04:07:52.215Z,4.60
2019-03-15T04:08:56.972Z,4.60
2019-03-15T04:10:01.756Z,4.70
2019-03-15T04:11:06.804Z,4.70
2019-03-15T04:12:11.808Z,4.70
2019-03-15T04:13:16.821Z,4.60
2019-03-15T04:14:21.641Z,4.60
2019-03-15T04:15:26.567Z,4.60
2019-03-15T04:16:31.700Z,4.60
2019-03-15T04:17:36.507Z,4.60
2019-03-15T04:18:41.400Z,4.60
2019-03-15T04:19:46.280Z,4.60
2019-03-15T04:20:51.172Z,4.50
2019-03-15T04:21:55.940Z,4.50
2019-03-15T04:23:00.683Z,4.50
2019-03-15T04:24:05.753Z,4.60
2019-03-15T04:25:10.608Z,4.60
2019-03-15T04:26:15.508Z,4.60
2019-03-15T04:27:20.284Z,4.60
2019-03-15T04:28:25.056Z,4.60
2019-03-15T04:29:30.077Z,4.60
2019-03-15T04:30:35.065Z,4.60
2019-03-15T04:31:39.821Z,4.60
2019-03-15T04:32:44.636Z,4.60
2019-03-15T04:33:49.631Z,4.50
2019-03-15T04:34:54.523Z,4.60
2019-03-15T04:35:59.323Z,4.60
2019-03-15T04:37:04.305Z,4.70
2019-03-15T04:38:09.087Z,4.70
2019-03-15T04:39:14.222Z,4.60
2019-03-15T04:40:19.336Z,4.60
2019-03-15T04:41:24.339Z,4.60
2019-03-15T04:42:29.122Z,4.60
2019-03-15T04:43:34.208Z,4.60
2019-03-15T04:44:39.119Z,4.60
2019-03-15T04:45:43.912Z,4.60
2019-03-15T04:46:48.711Z,4.60
2019-03-15T04:47:53.465Z,4.60
2019-03-15T04:48:58.392Z,4.60
2019-03-15T04:50:03.201Z,4.60
2019-03-15T04:51:07.956Z,4.60
2019-03-15T04:52:12.876Z,4.60
2019-03-15T04:53:17.859Z,4.60
2019-03-15T04:54:22.808Z,4.60
2019-03-15T04:55:27.648Z,4.60
2019-03-15T04:56:32.644Z,4.60
2019-03-15T04:57:37.471Z,4.50
2019-03-15T04:58:42.356Z,4.60
2019-03-15T04:59:47.312Z,4.60
2019-03-15T05:00:52.110Z,4.60
2019-03-15T05:01:57.821Z,4.60
2019-03-15T05:03:02.616Z,4.60
2019-03-15T05:04:07.437Z,4.60
2019-03-15T05:05:12.263Z,4.60
2019-03-15T05:06:17.140Z,4.60
2019-03-15T05:07:22.163Z,4.60
2019-03-15T05:08:27.012Z,4.60
2019-03-15T05:09:31.801Z,4.60
2019-03-15T05:10:36.604Z,4.60
2019-03-15T05:11:41.578Z,4.60
2019-03-15T05:12:46.540Z,4.70
2019-03-15T05:13:51.724Z,4.70
2019-03-15T05:14:56.708Z,4.70
2019-03-15T05:16:01.575Z,4.60
2019-03-15T05:17:06.781Z,4.60
2019-03-15T05:18:12.065Z,4.60
2019-03-15T05:19:17.248Z,4.60
2019-03-15T05:20:22.211Z,4.70
2019-03-15T05:21:27.110Z,4.70
2019-03-15T05:22:32.071Z,4.70
2019-03-15T05:23:37.120Z,4.60
2019-03-15T05:24:42.039Z,4.60
2019-03-15T05:25:46.872Z,4.60
2019-03-15T05:26:51.883Z,4.60
2019-03-15T05:27:57.527Z,4.60
2019-03-15T05:29:02.656Z,4.60
2019-03-15T05:30:08.415Z,4.60
2019-03-15T05:31:13.747Z,4.70
2019-03-15T05:32:18.812Z,4.70
2019-03-15T05:33:23.947Z,4.60
2019-03-15T05:34:29.160Z,4.60
2019-03-15T05:35:34.320Z,4.60
2019-03-15T05:36:39.347Z,4.60
2019-03-15T05:37:44.379Z,4.60
2019-03-15T05:38:49.491Z,4.50
2019-03-15T05:39:54.419Z,4.50
2019-03-15T05:40:59.877Z,4.60
2019-03-15T05:42:05.150Z,4.60
2019-03-15T05:43:10.277Z,4.60
2019-03-15T05:44:15.278Z,4.60
2019-03-15T05:45:20.622Z,4.60
2019-03-15T05:46:25.937Z,4.60
2019-03-15T05:47:31.011Z,4.70
2019-03-15T05:48:35.918Z,4.70
2019-03-15T05:49:41.177Z,4.70
2019-03-15T05:50:46.207Z,4.70
2019-03-15T05:51:51.139Z,4.70
2019-03-15T05:52:56.356Z,4.60
2019-03-15T05:54:01.676Z,4.70
2019-03-15T05:55:08.191Z,4.70
2019-03-15T05:56:13.256Z,4.70
2019-03-15T05:57:18.610Z,4.70
2019-03-15T05:58:23.735Z,4.70
2019-03-15T05:59:28.893Z,4.70
2019-03-15T06:00:33.980Z,4.70
2019-03-15T06:01:39.014Z,4.70
2019-03-15T06:02:44.287Z,4.80
2019-03-15T06:03:49.500Z,4.80
2019-03-15T06:04:54.626Z,4.80
2019-03-15T06:05:59.826Z,4.80
2019-03-15T06:07:05.097Z,4.80
2019-03-15T06:08:10.564Z,4.90
2019-03-15T06:09:15.802Z,4.90
2019-03-15T06:10:20.701Z,5.00
2019-03-15T06:11:25.957Z,5.00
2019-03-15T06:12:31.059Z,5.10
2019-03-15T06:13:36.081Z,5.00
2019-03-15T06:14:40.856Z,5.00
2019-03-15T06:15:45.944Z,5.10
2019-03-15T06:16:50.886Z,5.20
2019-03-15T06:17:55.935Z,5.20
2019-03-15T06:19:03.884Z,5.30
2019-03-15T06:20:09.567Z,5.30
2019-03-15T06:21:14.517Z,5.30
2019-03-15T06:22:19.404Z,5.40
2019-03-15T06:23:24.316Z,5.40
2019-03-15T06:24:29.609Z,5.40
2019-03-15T06:25:34.740Z,5.40
2019-03-15T06:26:40.880Z,5.40
2019-03-15T06:27:45.948Z,5.40
2019-03-15T06:28:51.304Z,5.40
2019-03-15T06:29:56.256Z,5.40
2019-03-15T06:31:01.254Z,5.40
2019-03-15T06:32:06.691Z,5.40
2019-03-15T06:33:11.503Z,5.40
2019-03-15T06:34:16.631Z,5.40
2019-03-15T06:35:21.807Z,5.40
2019-03-15T06:36:26.968Z,5.50
2019-03-15T06:37:32.007Z,5.50
2019-03-15T06:38:37.004Z,5.50
2019-03-15T06:39:42.143Z,5.40
2019-03-15T06:40:47.195Z,5.40
2019-03-15T06:41:52.339Z,5.40
2019-03-15T06:42:57.471Z,5.40
2019-03-15T06:44:02.794Z,5.40
2019-03-15T06:45:08.800Z,5.40
2019-03-15T06:46:14.053Z,5.40
2019-03-15T06:47:19.205Z,5.40
2019-03-15T06:48:24.345Z,5.40
2019-03-15T06:49:30.176Z,5.40
2019-03-15T06:50:35.693Z,5.30
2019-03-15T06:51:40.850Z,5.30
2019-03-15T06:52:46.227Z,5.30
2019-03-15T06:53:51.377Z,5.30
2019-03-15T06:54:56.964Z,5.20
2019-03-15T06:56:02.051Z,5.10
2019-03-15T06:57:06.949Z,5.10
2019-03-15T06:58:12.164Z,5.10
2019-03-15T06:59:17.369Z,5.10
2019-03-15T07:00:22.708Z,5.10
2019-03-15T07:01:27.932Z,5.00
2019-03-15T07:02:33.236Z,5.10
2019-03-15T07:03:38.434Z,5.10
2019-03-15T07:04:43.426Z,5.10
2019-03-15T07:05:48.431Z,5.20
2019-03-15T07:06:53.633Z,5.30
2019-03-15T07:07:58.985Z,5.30
2019-03-15T07:09:05.433Z,5.40
2019-03-15T07:10:10.800Z,5.40
2019-03-15T07:11:16.073Z,5.50
2019-03-15T07:12:21.332Z,5.50
2019-03-15T07:13:26.586Z,5.50
2019-03-15T07:14:31.885Z,5.50
2019-03-15T07:15:36.898Z,5.50
2019-03-15T07:16:41.802Z,5.60
2019-03-15T07:17:46.845Z,5.50
2019-03-15T07:18:52.206Z,5.50
2019-03-15T07:19:57.810Z,5.40
2019-03-15T07:21:03.017Z,5.40
2019-03-15T07:22:08.503Z,5.50
2019-03-15T07:23:13.900Z,5.50
2019-03-15T07:24:24.919Z,5.40
2019-03-15T07:25:26.048Z,5.50
2019-03-15T07:26:31.183Z,5.50
2019-03-15T07:27:36.720Z,5.40
2019-03-15T07:28:42.677Z,5.40
2019-03-15T07:29:49.563Z,5.40
2019-03-15T07:30:54.504Z,5.50
2019-03-15T07:32:00.054Z,5.60
2019-03-15T07:33:05.180Z,5.60
2019-03-15T07:34:13.703Z,5.60
2019-03-15T07:35:17.453Z,5.60
2019-03-15T07:36:22.360Z,5.60
2019-03-15T07:37:27.536Z,5.50
2019-03-15T07:38:32.733Z,5.50
2019-03-15T07:39:38.059Z,5.50
2019-03-15T07:40:43.317Z,5.60
2019-03-15T07:41:48.852Z,5.60
2019-03-15T07:42:54.175Z,5.50
2019-03-15T07:43:59.258Z,5.50
2019-03-15T07:45:04.635Z,5.50
2019-03-15T07:46:11.751Z,5.40
2019-03-15T07:47:16.715Z,5.50
2019-03-15T07:48:23.004Z,5.50
2019-03-15T07:49:28.349Z,5.50
2019-03-15T07:50:33.658Z,5.50
2019-03-15T07:51:38.932Z,5.50
2019-03-15T07:52:44.127Z,5.50
2019-03-15T07:53:49.275Z,5.40
2019-03-15T07:54:54.334Z,5.40
2019-03-15T07:55:59.947Z,5.50
2019-03-15T07:57:05.129Z,5.60
2019-03-15T07:58:10.432Z,5.50
2019-03-15T07:59:15.458Z,5.50
2019-03-15T08:00:20.945Z,5.50
2019-03-15T08:01:26.173Z,5.60
2019-03-15T08:02:31.116Z,5.50
2019-03-15T08:03:36.319Z,5.60
2019-03-15T08:04:41.376Z,5.60
2019-03-15T08:05:46.617Z,5.70
2019-03-15T08:06:51.635Z,5.80
2019-03-15T08:07:56.503Z,5.90
2019-03-15T08:09:01.528Z,5.90
2019-03-15T08:10:06.732Z,5.90
2019-03-15T08:11:11.579Z,6.00
2019-03-15T08:12:16.644Z,6.10
2019-03-15T08:13:25.989Z,6.00
2019-03-15T08:14:34.398Z,6.10
2019-03-15T08:15:43.752Z,6.00
2019-03-15T08:16:52.750Z,6.00
2019-03-15T08:17:58.380Z,5.90
2019-03-15T08:19:05.030Z,6.00
2019-03-15T08:20:10.782Z,5.90
2019-03-15T08:21:16.921Z,5.90
2019-03-15T08:22:21.892Z,6.00
2019-03-15T08:23:26.832Z,6.00
2019-03-15T08:24:31.733Z,5.90
2019-03-15T08:25:37.132Z,5.90
2019-03-15T08:26:44.754Z,6.00
2019-03-15T08:27:49.725Z,6.00
2019-03-15T08:28:54.751Z,6.10
2019-03-15T08:30:00.390Z,6.10
2019-03-15T08:31:05.957Z,6.20
2019-03-15T08:32:11.332Z,6.20
2019-03-15T08:33:16.236Z,6.20
2019-03-15T08:34:21.333Z,6.10
2019-03-15T08:35:26.235Z,6.10
2019-03-15T08:36:31.244Z,6.10
2019-03-15T08:37:36.372Z,6.20
2019-03-15T08:38:47.346Z,6.20
2019-03-15T08:39:48.333Z,6.30
2019-03-15T08:40:53.414Z,6.20
2019-03-15T08:41:58.457Z,6.20
2019-03-15T08:43:03.523Z,6.20
2019-03-15T08:44:08.764Z,6.20
2019-03-15T08:45:14.487Z,6.20
2019-03-15T08:46:19.629Z,6.10
2019-03-15T08:47:24.914Z,6.10
2019-03-15T08:48:31.981Z,6.10
2019-03-15T08:49:36.767Z,6.10
2019-03-15T08:50:41.747Z,6.10
2019-03-15T08:51:46.826Z,6.00
2019-03-15T08:52:54.085Z,5.90
2019-03-15T08:53:58.538Z,6.00
2019-03-15T08:55:05.529Z,6.00
2019-03-15T08:56:14.329Z,6.00
2019-03-15T08:57:19.263Z,6.00
2019-03-15T08:58:24.389Z,5.90
2019-03-15T08:59:29.282Z,5.80
2019-03-15T09:00:35.406Z,5.80
2019-03-15T09:01:40.350Z,5.80
2019-03-15T09:02:45.416Z,5.90
2019-03-15T09:03:50.524Z,5.80
2019-03-15T09:04:55.960Z,5.90
2019-03-15T09:06:00.842Z,5.90
2019-03-15T09:07:06.095Z,5.90
2019-03-15T09:08:11.016Z,6.10
2019-03-15T09:09:16.047Z,6.00
2019-03-15T09:10:23.514Z,6.00
2019-03-15T09:11:28.211Z,6.10
2019-03-15T09:12:33.016Z,6.20
2019-03-15T09:13:37.942Z,6.20
2019-03-15T09:14:42.985Z,6.20
2019-03-15T09:15:48.148Z,6.10
2019-03-15T09:16:53.262Z,6.00
2019-03-15T09:17:58.515Z,6.00
2019-03-15T09:19:03.658Z,6.10
2019-03-15T09:20:08.776Z,6.10
2019-03-15T09:21:14.041Z,6.10
2019-03-15T09:22:18.921Z,6.20
2019-03-15T09:23:23.980Z,6.30
2019-03-15T09:24:29.021Z,6.20
2019-03-15T09:25:34.146Z,6.10
2019-03-15T09:26:39.342Z,6.10
2019-03-15T09:27:45.830Z,6.30
2019-03-15T09:28:50.883Z,6.30
2019-03-15T09:29:56.371Z,6.30
2019-03-15T09:31:01.372Z,6.30
2019-03-15T09:32:09.374Z,6.20
2019-03-15T09:33:14.304Z,6.20
2019-03-15T09:34:19.446Z,6.30
2019-03-15T09:35:24.375Z,6.30
2019-03-15T09:36:29.352Z,6.30
2019-03-15T09:37:34.436Z,6.30
2019-03-15T09:38:39.526Z,6.30
2019-03-15T09:39:44.592Z,6.50
2019-03-15T09:40:49.772Z,6.60
2019-03-15T09:41:54.935Z,6.50
2019-03-15T09:43:02.444Z,6.60
2019-03-15T09:44:07.518Z,6.60
2019-03-15T09:45:13.240Z,6.60
2019-03-15T09:46:18.332Z,6.50
2019-03-15T09:47:23.277Z,6.60
2019-03-15T09:48:28.543Z,6.60
2019-03-15T09:49:33.540Z,6.60
2019-03-15T09:50:50.670Z,6.50
2019-03-15T09:51:45.368Z,6.40
2019-03-15T09:52:50.457Z,6.40
2019-03-15T09:53:55.509Z,6.50
2019-03-15T09:55:00.453Z,6.60
2019-03-15T09:56:05.807Z,6.60
2019-03-15T09:57:11.135Z,6.60
2019-03-15T09:58:17.432Z,6.60
2019-03-15T09:59:22.898Z,6.60
2019-03-15T10:00:28.202Z,6.60
2019-03-15T10:01:35.198Z,6.50
2019-03-15T10:02:39.882Z,6.50
2019-03-15T10:03:45.758Z,6.40
2019-03-15T10:04:50.974Z,6.40
2019-03-15T10:05:56.123Z,6.40
2019-03-15T10:07:01.070Z,6.40
2019-03-15T10:08:08.990Z,6.40
2019-03-15T10:09:14.511Z,6.30
2019-03-15T10:10:20.108Z,6.30
2019-03-15T10:11:25.129Z,6.40
2019-03-15T10:12:30.165Z,6.40
2019-03-15T10:13:35.325Z,6.50
2019-03-15T10:14:40.543Z,6.50
2019-03-15T10:15:45.467Z,6.50
2019-03-15T10:16:50.819Z,6.50
2019-03-15T10:17:56.082Z,6.40
2019-03-15T10:19:01.319Z,6.40
2019-03-15T10:20:07.913Z,6.50
2019-03-15T10:21:15.903Z,6.40
2019-03-15T10:22:20.743Z,6.40
2019-03-15T10:23:26.053Z,6.40
2019-03-15T10:24:31.219Z,6.40
2019-03-15T10:25:46.350Z,6.50
2019-03-15T10:26:42.866Z,6.60
2019-03-15T10:27:48.136Z,6.70
2019-03-15T10:28:53.294Z,6.60
2019-03-15T10:29:58.373Z,6.60
2019-03-15T10:31:03.485Z,6.60
2019-03-15T10:32:08.595Z,6.60
2019-03-15T10:33:14.081Z,6.60
2019-03-15T10:34:19.068Z,6.60
2019-03-15T10:35:24.144Z,6.60
2019-03-15T10:36:29.462Z,6.60
2019-03-15T10:37:34.553Z,6.60
2019-03-15T10:38:41.404Z,6.70
2019-03-15T10:39:46.416Z,6.80
2019-03-15T10:40:51.505Z,6.80
2019-03-15T10:41:58.218Z,6.80
2019-03-15T10:43:04.083Z,6.70
2019-03-15T10:44:09.137Z,6.70
2019-03-15T10:45:14.398Z,6.70
2019-03-15T10:46:19.509Z,6.80
2019-03-15T10:47:24.881Z,6.70
2019-03-15T10:48:29.961Z,6.60
2019-03-15T10:49:43.834Z,6.50
2019-03-15T10:50:51.753Z,6.50
2019-03-15T10:51:56.994Z,6.50
2019-03-15T10:53:02.065Z,6.50
2019-03-15T10:54:06.946Z,6.60
2019-03-15T10:55:12.171Z,6.60
2019-03-15T10:56:17.852Z,6.60
2019-03-15T10:57:22.876Z,6.50
2019-03-15T10:58:28.079Z,6.50
2019-03-15T10:59:33.352Z,6.50
2019-03-15T11:00:39.696Z,6.60
2019-03-15T11:01:44.804Z,6.60
2019-03-15T11:02:51.017Z,6.60
2019-03-15T11:03:58.611Z,6.60
2019-03-15T11:05:07.387Z,6.60
2019-03-15T11:06:12.617Z,6.60
2019-03-15T11:07:17.884Z,6.60
2019-03-15T11:08:24.309Z,6.60
2019-03-15T11:09:31.656Z,6.40
2019-03-15T11:10:40.434Z,6.50
2019-03-15T11:11:46.808Z,6.40
2019-03-15T11:12:53.307Z,6.50
2019-03-15T11:13:59.188Z,6.50
2019-03-15T11:15:04.669Z,6.50
2019-03-15T11:16:11.149Z,6.50
2019-03-15T11:17:16.382Z,6.60
2019-03-15T11:18:21.534Z,6.50
2019-03-15T11:19:26.573Z,6.50
2019-03-15T11:20:32.091Z,6.40
2019-03-15T11:21:37.429Z,6.30
2019-03-15T11:22:42.608Z,6.20
2019-03-15T11:23:47.569Z,6.20
2019-03-15T11:24:52.796Z,6.00
2019-03-15T11:25:57.969Z,6.00
2019-03-15T11:27:02.938Z,6.00
2019-03-15T11:28:08.195Z,6.10
2019-03-15T11:29:13.587Z,6.20
2019-03-15T11:30:18.847Z,6.20
2019-03-15T11:31:26.722Z,6.20
2019-03-15T11:32:31.784Z,6.10
2019-03-15T11:33:37.392Z,6.10
2019-03-15T11:34:42.519Z,6.20
2019-03-15T11:35:48.026Z,6.20
2019-03-15T11:36:58.314Z,6.10
2019-03-15T11:38:00.059Z,6.10
2019-03-15T11:39:06.914Z,6.10
2019-03-15T11:40:14.008Z,6.10
2019-03-15T11:41:19.876Z,6.30
2019-03-15T11:42:28.237Z,6.30
2019-03-15T11:43:34.531Z,6.20
2019-03-15T11:44:39.759Z,6.20
2019-03-15T11:45:44.736Z,6.20
2019-03-15T11:46:49.674Z,6.20
2019-03-15T11:48:03.426Z,6.30
2019-03-15T11:49:01.356Z,6.20
2019-03-15T11:50:07.504Z,6.20
2019-03-15T11:51:12.672Z,6.30
2019-03-15T11:52:18.177Z,6.30
2019-03-15T11:53:23.361Z,6.30
2019-03-15T11:54:28.436Z,6.40
2019-03-15T11:55:33.917Z,6.40
2019-03-15T11:56:39.238Z,6.50
2019-03-15T11:57:44.377Z,6.40
2019-03-15T11:58:52.018Z,6.50
2019-03-15T11:59:57.050Z,6.60
2019-03-15T12:01:05.046Z,6.60
2019-03-15T12:02:10.873Z,6.60
2019-03-15T12:03:16.257Z,6.60
2019-03-15T12:04:24.075Z,6.70
2019-03-15T12:05:30.169Z,6.50
2019-03-15T12:06:36.577Z,6.60
2019-03-15T12:07:41.990Z,6.70
2019-03-15T12:08:47.217Z,6.70
2019-03-15T12:10:40.302Z,6.70
2019-03-15T12:11:45.466Z,6.60
2019-03-15T12:12:50.408Z,6.50
2019-03-15T12:13:56.648Z,6.40
2019-03-15T12:15:01.725Z,6.40
2019-03-15T12:16:06.980Z,6.30
2019-03-15T12:17:13.609Z,6.30
2019-03-15T12:18:18.756Z,6.30
2019-03-15T12:19:23.836Z,6.40
2019-03-15T12:20:30.941Z,6.40
2019-03-15T12:21:36.137Z,6.40
2019-03-15T12:22:45.250Z,6.40
2019-03-15T12:23:50.486Z,6.40
2019-03-15T12:24:55.719Z,6.40
2019-03-15T12:26:00.684Z,6.40
2019-03-15T12:27:08.232Z,6.40
2019-03-15T12:28:13.545Z,6.40
2019-03-15T12:29:19.951Z,6.30
2019-03-15T12:30:28.683Z,6.30
2019-03-15T12:31:33.853Z,6.40
2019-03-15T12:32:42.013Z,6.50
2019-03-15T12:33:46.999Z,6.60
2019-03-15T12:34:52.300Z,6.60
2019-03-15T12:36:03.322Z,6.50
2019-03-15T12:37:08.620Z,6.50
2019-03-15T12:38:16.622Z,6.60
2019-03-15T12:39:23.451Z,6.60
2019-03-15T12:40:28.679Z,6.70
2019-03-15T12:41:33.929Z,6.70
2019-03-15T12:42:39.435Z,6.60
2019-03-15T12:43:45.485Z,6.60
2019-03-15T12:44:51.016Z,6.60
2019-03-15T12:45:56.336Z,6.50
2019-03-15T12:47:01.483Z,6.50
2019-03-15T12:48:08.380Z,6.60
2019-03-15T12:49:13.564Z,6.60
2019-03-15T12:50:21.082Z,6.60
2019-03-15T12:51:32.085Z,6.50
2019-03-15T12:52:41.948Z,6.50
2019-03-15T12:53:42.945Z,6.60
2019-03-15T12:54:48.047Z,6.50
2019-03-15T12:55:53.005Z,6.50
2019-03-15T12:56:58.080Z,6.50
2019-03-15T12:58:03.237Z,6.50
2019-03-15T12:59:08.616Z,6.60
2019-03-15T13:00:15.968Z,6.60
2019-03-15T13:01:21.388Z,6.50
2019-03-15T13:02:26.729Z,6.60
2019-03-15T13:03:31.717Z,6.70
2019-03-15T13:04:36.915Z,6.70
2019-03-15T13:05:41.935Z,6.80
2019-03-15T13:06:46.986Z,6.90
2019-03-15T13:07:52.039Z,7.00
2019-03-15T13:08:57.121Z,7.00
2019-03-15T13:10:02.044Z,7.10
2019-03-15T13:11:07.002Z,6.90
2019-03-15T13:12:12.240Z,6.90
2019-03-15T13:13:17.347Z,6.90
2019-03-15T13:14:22.360Z,6.90
2019-03-15T13:15:27.225Z,6.90
2019-03-15T13:16:33.310Z,7.10
2019-03-15T13:17:39.801Z,7.30
2019-03-15T13:18:44.780Z,7.50
2019-03-15T13:19:55.159Z,7.50
2019-03-15T13:20:56.535Z,7.50
2019-03-15T13:22:01.803Z,7.50
2019-03-15T13:23:06.886Z,7.50
2019-03-15T13:24:13.816Z,7.50
2019-03-15T13:25:18.685Z,7.40
2019-03-15T13:26:24.008Z,7.20
2019-03-15T13:27:29.193Z,7.20
2019-03-15T13:28:34.235Z,7.10
2019-03-15T13:29:39.476Z,7.00
2019-03-15T13:30:44.815Z,6.90
2019-03-15T13:31:49.989Z,6.90
2019-03-15T13:32:55.170Z,6.90
2019-03-15T13:34:00.241Z,6.90
2019-03-15T13:35:07.212Z,6.90
2019-03-15T13:36:12.568Z,6.80
2019-03-15T13:37:17.869Z,6.80
2019-03-15T13:38:25.507Z,6.70
2019-03-15T13:39:32.738Z,6.60
2019-03-15T13:40:38.057Z,6.60
2019-03-15T13:41:43.312Z,6.60
2019-03-15T13:42:48.586Z,6.60
2019-03-15T13:43:53.613Z,6.50
2019-03-15T13:44:59.801Z,6.40
2019-03-15T13:46:05.155Z,6.30
2019-03-15T13:47:10.782Z,6.30
2019-03-15T13:48:16.314Z,6.30
2019-03-15T13:49:22.169Z,6.30
2019-03-15T13:50:27.377Z,6.20
2019-03-15T13:51:32.556Z,6.20
2019-03-15T13:52:37.961Z,6.20
2019-03-15T13:53:43.293Z,6.20
2019-03-15T13:54:48.428Z,6.20
2019-03-15T13:55:53.861Z,6.10
2019-03-15T13:56:59.274Z,6.10
2019-03-15T13:58:04.608Z,6.10
2019-03-15T13:59:10.171Z,6.00
2019-03-15T14:00:15.650Z,6.00
2019-03-15T14:01:20.795Z,6.00
2019-03-15T14:02:26.204Z,6.00
2019-03-15T14:03:31.934Z,6.00
2019-03-15T14:04:37.057Z,6.00
2019-03-15T14:05:42.309Z,6.00
2019-03-15T14:06:47.654Z,6.00
2019-03-15T14:07:53.218Z,6.00
2019-03-15T14:08:58.200Z,6.00
2019-03-15T14:10:04.224Z,5.90
2019-03-15T14:11:09.966Z,5.90
2019-03-15T14:12:15.967Z,5.90
2019-03-15T14:13:21.446Z,5.80
2019-03-15T14:14:26.980Z,5.80
2019-03-15T14:15:32.290Z,5.80
2019-03-15T14:16:37.340Z,5.70
2019-03-15T14:17:42.509Z,5.70
2019-03-15T14:18:47.680Z,5.70
2019-03-15T14:19:53.498Z,5.60
2019-03-15T14:20:59.936Z,5.60
2019-03-15T14:22:07.701Z,5.60
2019-03-15T14:23:12.744Z,5.60
2019-03-15T14:24:17.945Z,5.60
2019-03-15T14:25:25.235Z,5.60
2019-03-15T14:26:30.399Z,5.50
2019-03-15T14:27:37.784Z,5.50
2019-03-15T14:28:42.496Z,5.50
2019-03-15T14:29:47.667Z,5.60
2019-03-15T14:30:53.402Z,5.60